sensor_id;sensor_type;location;lat;lon;timestamp;temperature;humidity
54409;DHT22;40315;48.620;9.828;2022-12-07T00:01:10;2.40;99.90
54409;DHT22;40315;48.620;9.828;2022-12-07T00:03:39;2.30;99.90
54409;DHT22;40315;48.620;9.828;2022-12-07T00:06:07;2.30;99.90
54409;DHT22;40315;48.620;9.828;2022-12-07T00:08:35;2.30;99.90
54409;DHT22;40315;48.620;9.828;2022-12-07T00:11:05;2.40;99.90
54409;DHT22;40315;48.620;9.828;2022-12-07T00:13:33;2.50;99.90
54409;DHT22;40315;48.620;9.828;2022-12-07T00:16:05;2.50;99.90
54409;DHT22;40315;48.620;9.828;2022-12-07T00:18:33;2.70;99.90
54409;DHT22;40315;48.620;9.828;2022-12-07T00:21:04;4.00;99.90
54409;DHT22;40315;48.620;9.828;2022-12-07T00:23:34;2.70;99.90
54409;DHT22;40315;48.620;9.828;2022-12-07T00:26:08;2.80;99.90
54409;DHT22;40315;48.620;9.828;2022-12-07T00:28:38;2.50;99.90
54409;DHT22;40315;48.620;9.828;2022-12-07T00:31:06;2.40;99.90
54409;DHT22;40315;48.620;9.828;2022-12-07T00:33:34;2.40;99.90
54409;DHT22;40315;48.620;9.828;2022-12-07T00:36:07;2.40;99.90
54409;DHT22;40315;48.620;9.828;2022-12-07T00:38:35;2.50;99.90
54409;DHT22;40315;48.620;9.828;2022-12-07T00:41:06;2.50;99.90
54409;DHT22;40315;48.620;9.828;2022-12-07T00:43:34;2.40;99.90
54409;DHT22;40315;48.620;9.828;2022-12-07T00:46:01;2.40;99.90
54409;DHT22;40315;48.620;9.828;2022-12-07T00:48:28;2.40;99.90
54409;DHT22;40315;48.620;9.828;2022-12-07T00:50:55;2.30;99.90
54409;DHT22;40315;48.620;9.828;2022-12-07T00:53:23;2.30;99.90
54409;DHT22;40315;48.620;9.828;2022-12-07T00:55:50;2.20;99.90
54409;DHT22;40315;48.620;9.828;2022-12-07T00:58:22;2.30;99.90
54409;DHT22;40315;48.620;9.828;2022-12-07T01:00:50;2.30;99.90
54409;DHT22;40315;48.620;9.828;2022-12-07T01:03:17;4.50;99.90
54409;DHT22;40315;48.620;9.828;2022-12-07T01:05:52;2.30;99.90
54409;DHT22;40315;48.620;9.828;2022-12-07T01:10:58;2.20;99.90
54409;DHT22;40315;48.620;9.828;2022-12-07T01:13:27;2.20;99.90
54409;DHT22;40315;48.620;9.828;2022-12-07T01:15:57;2.30;99.90
54409;DHT22;40315;48.620;9.828;2022-12-07T01:18:26;2.50;99.90
54409;DHT22;40315;48.620;9.828;2022-12-07T01:20:59;2.50;99.90
54409;DHT22;40315;48.620;9.828;2022-12-07T01:23:29;2.60;99.90
54409;DHT22;40315;48.620;9.828;2022-12-07T01:25:56;2.60;99.90
54409;DHT22;40315;48.620;9.828;2022-12-07T01:28:24;2.50;99.90
54409;DHT22;40315;48.620;9.828;2022-12-07T01:31:00;2.50;99.90
54409;DHT22;40315;48.620;9.828;2022-12-07T01:33:28;2.40;99.90
54409;DHT22;40315;48.620;9.828;2022-12-07T01:36:00;2.40;99.90
54409;DHT22;40315;48.620;9.828;2022-12-07T01:38:30;2.30;99.90
54409;DHT22;40315;48.620;9.828;2022-12-07T01:41:01;2.30;99.90
54409;DHT22;40315;48.620;9.828;2022-12-07T02:03:08;2.20;99.90
54409;DHT22;40315;48.620;9.828;2022-12-07T02:05:37;2.20;99.90
54409;DHT22;40315;48.620;9.828;2022-12-07T02:08:05;2.30;99.90
54409;DHT22;40315;48.620;9.828;2022-12-07T02:10:32;2.30;99.90
54409;DHT22;40315;48.620;9.828;2022-12-07T02:13:02;2.40;99.90
54409;DHT22;40315;48.620;9.828;2022-12-07T02:15:39;2.40;99.90
54409;DHT22;40315;48.620;9.828;2022-12-07T02:18:16;2.30;99.90
54409;DHT22;40315;48.620;9.828;2022-12-07T02:20:53;2.30;99.90
54409;DHT22;40315;48.620;9.828;2022-12-07T02:29:37;2.30;99.90
54409;DHT22;40315;48.620;9.828;2022-12-07T02:32:10;2.20;99.90
54409;DHT22;40315;48.620;9.828;2022-12-07T02:34:44;2.20;99.90
54409;DHT22;40315;48.620;9.828;2022-12-07T02:37:23;2.20;99.90
54409;DHT22;40315;48.620;9.828;2022-12-07T02:39:57;0.80;99.90
54409;DHT22;40315;48.620;9.828;2022-12-07T02:42:34;2.20;99.90
54409;DHT22;40315;48.620;9.828;2022-12-07T02:45:07;2.20;99.90
54409;DHT22;40315;48.620;9.828;2022-12-07T02:47:37;2.10;99.90
54409;DHT22;40315;48.620;9.828;2022-12-07T02:50:07;2.10;99.90
54409;DHT22;40315;48.620;9.828;2022-12-07T02:52:34;2.10;99.90
54409;DHT22;40315;48.620;9.828;2022-12-07T02:55:04;2.10;99.90
54409;DHT22;40315;48.620;9.828;2022-12-07T02:57:45;2.10;99.90
54409;DHT22;40315;48.620;9.828;2022-12-07T03:00:18;2.10;99.90
54409;DHT22;40315;48.620;9.828;2022-12-07T03:02:52;2.00;99.90
54409;DHT22;40315;48.620;9.828;2022-12-07T03:05:31;2.00;99.90
54409;DHT22;40315;48.620;9.828;2022-12-07T03:08:07;2.00;99.90
54409;DHT22;40315;48.620;9.828;2022-12-07T03:10:49;1.10;99.90
54409;DHT22;40315;48.620;9.828;2022-12-07T03:13:24;2.00;99.90
54409;DHT22;40315;48.620;9.828;2022-12-07T03:16:01;2.00;99.90
54409;DHT22;40315;48.620;9.828;2022-12-07T03:18:35;2.00;99.90
54409;DHT22;40315;48.620;9.828;2022-12-07T03:21:08;2.00;99.90
54409;DHT22;40315;48.620;9.828;2022-12-07T03:23:39;2.00;99.90
54409;DHT22;40315;48.620;9.828;2022-12-07T03:26:09;2.10;99.90
54409;DHT22;40315;48.620;9.828;2022-12-07T03:28:41;2.10;99.90
54409;DHT22;40315;48.620;9.828;2022-12-07T03:31:17;2.10;99.90
54409;DHT22;40315;48.620;9.828;2022-12-07T03:33:49;2.30;99.90
54409;DHT22;40315;48.620;9.828;2022-12-07T03:36:24;2.30;99.90
54409;DHT22;40315;48.620;9.828;2022-12-07T03:38:57;2.30;99.90
54409;DHT22;40315;48.620;9.828;2022-12-07T03:41:28;2.40;99.90
54409;DHT22;40315;48.620;9.828;2022-12-07T03:43:57;2.40;99.90
54409;DHT22;40315;48.620;9.828;2022-12-07T03:46:32;2.50;99.90
54409;DHT22;40315;48.620;9.828;2022-12-07T03:49:07;2.50;99.90
54409;DHT22;40315;48.620;9.828;2022-12-07T03:51:40;2.60;99.90
54409;DHT22;40315;48.620;9.828;2022-12-07T03:54:15;2.60;99.90
54409;DHT22;40315;48.620;9.828;2022-12-07T03:56:47;2.60;99.90
54409;DHT22;40315;48.620;9.828;2022-12-07T03:59:19;2.70;99.90
54409;DHT22;40315;48.620;9.828;2022-12-07T04:01:53;2.40;99.90
54409;DHT22;40315;48.620;9.828;2022-12-07T04:04:21;2.40;99.90
54409;DHT22;40315;48.620;9.828;2022-12-07T04:06:48;2.20;99.90
54409;DHT22;40315;48.620;9.828;2022-12-07T04:09:15;2.10;99.90
54409;DHT22;40315;48.620;9.828;2022-12-07T04:11:43;2.10;99.90
54409;DHT22;40315;48.620;9.828;2022-12-07T04:14:10;2.20;99.90
54409;DHT22;40315;48.620;9.828;2022-12-07T04:16:47;4.10;99.90
54409;DHT22;40315;48.620;9.828;2022-12-07T04:19:17;3.40;99.90
54409;DHT22;40315;48.620;9.828;2022-12-07T04:21:44;2.50;99.90
54409;DHT22;40315;48.620;9.828;2022-12-07T04:24:12;2.50;99.90
54409;DHT22;40315;48.620;9.828;2022-12-07T04:26:40;2.30;99.90
54409;DHT22;40315;48.620;9.828;2022-12-07T04:29:07;2.30;99.90
54409;DHT22;40315;48.620;9.828;2022-12-07T04:31:34;2.20;99.90
54409;DHT22;40315;48.620;9.828;2022-12-07T04:34:02;2.00;99.90
54409;DHT22;40315;48.620;9.828;2022-12-07T04:36:30;2.00;99.90
54409;DHT22;40315;48.620;9.828;2022-12-07T04:38:58;2.00;99.90
54409;DHT22;40315;48.620;9.828;2022-12-07T04:41:27;1.90;99.90
54409;DHT22;40315;48.620;9.828;2022-12-07T04:43:54;1.90;99.90
54409;DHT22;40315;48.620;9.828;2022-12-07T04:46:22;2.10;99.90
54409;DHT22;40315;48.620;9.828;2022-12-07T04:48:49;2.10;99.90
54409;DHT22;40315;48.620;9.828;2022-12-07T04:51:22;2.30;99.90
54409;DHT22;40315;48.620;9.828;2022-12-07T04:53:50;2.30;99.90
54409;DHT22;40315;48.620;9.828;2022-12-07T04:56:20;2.40;99.90
54409;DHT22;40315;48.620;9.828;2022-12-07T04:58:51;2.40;99.90
54409;DHT22;40315;48.620;9.828;2022-12-07T05:01:19;2.50;99.90
54409;DHT22;40315;48.620;9.828;2022-12-07T05:06:17;2.40;99.90
54409;DHT22;40315;48.620;9.828;2022-12-07T05:08:44;2.50;99.90
54409;DHT22;40315;48.620;9.828;2022-12-07T05:11:13;2.40;99.90
54409;DHT22;40315;48.620;9.828;2022-12-07T05:14:03;2.40;99.90
54409;DHT22;40315;48.620;9.828;2022-12-07T05:16:31;2.40;99.90
54409;DHT22;40315;48.620;9.828;2022-12-07T05:18:58;2.40;99.90
54409;DHT22;40315;48.620;9.828;2022-12-07T05:21:25;2.30;99.90
54409;DHT22;40315;48.620;9.828;2022-12-07T05:23:52;2.30;99.90
54409;DHT22;40315;48.620;9.828;2022-12-07T05:26:23;2.30;99.90
54409;DHT22;40315;48.620;9.828;2022-12-07T05:28:51;2.30;99.90
54409;DHT22;40315;48.620;9.828;2022-12-07T05:31:18;2.20;99.90
54409;DHT22;40315;48.620;9.828;2022-12-07T05:33:45;2.10;99.90
54409;DHT22;40315;48.620;9.828;2022-12-07T05:36:12;2.10;99.90
54409;DHT22;40315;48.620;9.828;2022-12-07T05:38:42;2.20;99.90
54409;DHT22;40315;48.620;9.828;2022-12-07T05:41:12;2.10;99.90
54409;DHT22;40315;48.620;9.828;2022-12-07T05:44:01;2.10;99.90
54409;DHT22;40315;48.620;9.828;2022-12-07T05:46:30;2.00;99.90
54409;DHT22;40315;48.620;9.828;2022-12-07T05:49:00;1.90;99.90
54409;DHT22;40315;48.620;9.828;2022-12-07T05:51:28;1.90;99.90
54409;DHT22;40315;48.620;9.828;2022-12-07T05:53:55;1.80;99.90
54409;DHT22;40315;48.620;9.828;2022-12-07T05:56:22;1.80;99.90
54409;DHT22;40315;48.620;9.828;2022-12-07T05:58:49;1.90;99.90
54409;DHT22;40315;48.620;9.828;2022-12-07T06:01:38;1.90;99.90
54409;DHT22;40315;48.620;9.828;2022-12-07T06:04:07;1.90;99.90
54409;DHT22;40315;48.620;9.828;2022-12-07T06:06:37;1.80;99.90
54409;DHT22;40315;48.620;9.828;2022-12-07T06:09:04;1.80;99.90
54409;DHT22;40315;48.620;9.828;2022-12-07T06:11:31;1.80;99.90
54409;DHT22;40315;48.620;9.828;2022-12-07T06:14:15;1.90;99.90
54409;DHT22;40315;48.620;9.828;2022-12-07T06:16:44;1.80;99.90
54409;DHT22;40315;48.620;9.828;2022-12-07T06:19:11;1.70;99.90
54409;DHT22;40315;48.620;9.828;2022-12-07T06:21:38;1.70;99.90
54409;DHT22;40315;48.620;9.828;2022-12-07T06:24:08;1.70;99.90
54409;DHT22;40315;48.620;9.828;2022-12-07T06:26:35;1.70;99.90
54409;DHT22;40315;48.620;9.828;2022-12-07T06:29:05;1.60;99.90
54409;DHT22;40315;48.620;9.828;2022-12-07T06:31:32;1.60;99.90
54409;DHT22;40315;48.620;9.828;2022-12-07T06:34:02;1.60;99.90
54409;DHT22;40315;48.620;9.828;2022-12-07T06:36:29;1.60;99.90
54409;DHT22;40315;48.620;9.828;2022-12-07T06:38:58;1.60;99.90
54409;DHT22;40315;48.620;9.828;2022-12-07T06:41:25;1.60;99.90
54409;DHT22;40315;48.620;9.828;2022-12-07T06:43:55;1.60;99.90
54409;DHT22;40315;48.620;9.828;2022-12-07T06:46:23;1.60;99.90
54409;DHT22;40315;48.620;9.828;2022-12-07T06:48:50;1.60;99.90
54409;DHT22;40315;48.620;9.828;2022-12-07T06:51:19;1.70;99.90
54409;DHT22;40315;48.620;9.828;2022-12-07T06:53:48;1.70;99.90
54409;DHT22;40315;48.620;9.828;2022-12-07T06:56:17;1.70;99.90
54409;DHT22;40315;48.620;9.828;2022-12-07T06:58:44;1.60;99.90
54409;DHT22;40315;48.620;9.828;2022-12-07T07:01:12;1.70;99.90
54409;DHT22;40315;48.620;9.828;2022-12-07T07:03:40;1.60;99.90
54409;DHT22;40315;48.620;9.828;2022-12-07T07:06:11;1.80;99.90
54409;DHT22;40315;48.620;9.828;2022-12-07T07:08:40;1.80;99.90
54409;DHT22;40315;48.620;9.828;2022-12-07T07:11:07;1.80;99.90
54409;DHT22;40315;48.620;9.828;2022-12-07T07:13:35;1.80;99.90
54409;DHT22;40315;48.620;9.828;2022-12-07T07:16:02;1.80;99.90
54409;DHT22;40315;48.620;9.828;2022-12-07T07:18:29;1.80;99.90
54409;DHT22;40315;48.620;9.828;2022-12-07T07:20:56;1.80;99.90
54409;DHT22;40315;48.620;9.828;2022-12-07T07:23:24;1.90;99.90
54409;DHT22;40315;48.620;9.828;2022-12-07T07:25:54;1.90;99.90
54409;DHT22;40315;48.620;9.828;2022-12-07T07:28:22;1.90;99.90
54409;DHT22;40315;48.620;9.828;2022-12-07T07:30:49;1.80;99.90
54409;DHT22;40315;48.620;9.828;2022-12-07T07:33:16;1.80;99.90
54409;DHT22;40315;48.620;9.828;2022-12-07T07:35:43;1.90;99.90
54409;DHT22;40315;48.620;9.828;2022-12-07T07:38:13;1.90;99.90
54409;DHT22;40315;48.620;9.828;2022-12-07T07:40:40;1.90;99.90
54409;DHT22;40315;48.620;9.828;2022-12-07T07:43:08;1.60;99.90
54409;DHT22;40315;48.620;9.828;2022-12-07T07:45:35;1.40;99.90
54409;DHT22;40315;48.620;9.828;2022-12-07T07:48:02;1.40;99.90
54409;DHT22;40315;48.620;9.828;2022-12-07T07:50:29;1.40;99.90
54409;DHT22;40315;48.620;9.828;2022-12-07T07:52:57;1.50;99.90
54409;DHT22;40315;48.620;9.828;2022-12-07T07:55:24;1.60;99.90
54409;DHT22;40315;48.620;9.828;2022-12-07T07:57:51;1.60;99.90
54409;DHT22;40315;48.620;9.828;2022-12-07T08:00:20;1.70;99.90
54409;DHT22;40315;48.620;9.828;2022-12-07T08:02:47;1.80;99.90
54409;DHT22;40315;48.620;9.828;2022-12-07T08:05:15;1.90;99.90
54409;DHT22;40315;48.620;9.828;2022-12-07T08:07:42;1.70;99.90
54409;DHT22;40315;48.620;9.828;2022-12-07T08:10:11;1.80;99.90
54409;DHT22;40315;48.620;9.828;2022-12-07T08:12:42;1.90;99.90
54409;DHT22;40315;48.620;9.828;2022-12-07T08:15:25;2.00;99.90
54409;DHT22;40315;48.620;9.828;2022-12-07T08:17:52;2.00;99.90
54409;DHT22;40315;48.620;9.828;2022-12-07T08:20:21;2.10;99.90
54409;DHT22;40315;48.620;9.828;2022-12-07T08:25:16;2.00;99.90
54409;DHT22;40315;48.620;9.828;2022-12-07T08:27:43;2.00;99.90
54409;DHT22;40315;48.620;9.828;2022-12-07T08:30:11;2.00;99.90
54409;DHT22;40315;48.620;9.828;2022-12-07T08:32:40;2.10;99.90
54409;DHT22;40315;48.620;9.828;2022-12-07T08:35:07;2.10;99.90
54409;DHT22;40315;48.620;9.828;2022-12-07T08:37:37;2.40;99.90
54409;DHT22;40315;48.620;9.828;2022-12-07T08:40:08;2.10;99.90
54409;DHT22;40315;48.620;9.828;2022-12-07T08:42:36;2.20;99.90
54409;DHT22;40315;48.620;9.828;2022-12-07T08:45:07;2.40;99.90
54409;DHT22;40315;48.620;9.828;2022-12-07T08:47:35;2.40;99.90
54409;DHT22;40315;48.620;9.828;2022-12-07T08:50:06;2.10;99.90
54409;DHT22;40315;48.620;9.828;2022-12-07T08:52:37;2.10;99.90
54409;DHT22;40315;48.620;9.828;2022-12-07T08:55:06;2.10;99.90
54409;DHT22;40315;48.620;9.828;2022-12-07T08:57:36;2.00;99.90
54409;DHT22;40315;48.620;9.828;2022-12-07T09:00:04;2.10;99.90
54409;DHT22;40315;48.620;9.828;2022-12-07T09:02:32;2.10;99.90
54409;DHT22;40315;48.620;9.828;2022-12-07T09:04:59;1.90;99.90
54409;DHT22;40315;48.620;9.828;2022-12-07T09:07:27;1.90;99.90
54409;DHT22;40315;48.620;9.828;2022-12-07T09:09:55;2.00;99.90
54409;DHT22;40315;48.620;9.828;2022-12-07T09:12:22;2.00;99.90
54409;DHT22;40315;48.620;9.828;2022-12-07T09:14:49;2.00;99.90
54409;DHT22;40315;48.620;9.828;2022-12-07T09:17:16;2.10;99.90
54409;DHT22;40315;48.620;9.828;2022-12-07T09:19:43;2.20;99.90
54409;DHT22;40315;48.620;9.828;2022-12-07T09:24:39;2.20;99.90
54409;DHT22;40315;48.620;9.828;2022-12-07T09:27:06;2.30;99.90
54409;DHT22;40315;48.620;9.828;2022-12-07T09:29:33;2.30;99.90
54409;DHT22;40315;48.620;9.828;2022-12-07T09:32:00;2.30;99.90
54409;DHT22;40315;48.620;9.828;2022-12-07T09:34:29;2.40;99.90
54409;DHT22;40315;48.620;9.828;2022-12-07T09:36:57;2.40;99.90
54409;DHT22;40315;48.620;9.828;2022-12-07T09:39:24;2.50;99.90
54409;DHT22;40315;48.620;9.828;2022-12-07T09:41:53;2.60;99.90
54409;DHT22;40315;48.620;9.828;2022-12-07T09:44:24;2.60;99.90
54409;DHT22;40315;48.620;9.828;2022-12-07T09:46:52;2.60;99.90
54409;DHT22;40315;48.620;9.828;2022-12-07T09:49:21;2.70;99.90
54409;DHT22;40315;48.620;9.828;2022-12-07T09:52:00;2.70;99.90
54409;DHT22;40315;48.620;9.828;2022-12-07T09:54:29;2.80;99.90
54409;DHT22;40315;48.620;9.828;2022-12-07T09:56:58;2.80;99.90
54409;DHT22;40315;48.620;9.828;2022-12-07T09:59:25;2.90;99.90
54409;DHT22;40315;48.620;9.828;2022-12-07T10:01:52;3.00;99.90
54409;DHT22;40315;48.620;9.828;2022-12-07T10:04:21;2.90;99.90
54409;DHT22;40315;48.620;9.828;2022-12-07T10:06:50;2.90;99.90
54409;DHT22;40315;48.620;9.828;2022-12-07T10:09:19;2.90;99.90
54409;DHT22;40315;48.620;9.828;2022-12-07T10:12:05;3.00;99.90
54409;DHT22;40315;48.620;9.828;2022-12-07T10:14:38;3.10;99.90
54409;DHT22;40315;48.620;9.828;2022-12-07T10:17:28;3.20;99.90
54409;DHT22;40315;48.620;9.828;2022-12-07T10:20:12;3.80;99.90
54409;DHT22;40315;48.620;9.828;2022-12-07T10:22:54;3.30;99.90
54409;DHT22;40315;48.620;9.828;2022-12-07T10:25:24;3.50;99.90
54409;DHT22;40315;48.620;9.828;2022-12-07T10:28:08;3.40;99.90
54409;DHT22;40315;48.620;9.828;2022-12-07T10:30:47;3.50;99.90
54409;DHT22;40315;48.620;9.828;2022-12-07T10:33:31;3.50;99.90
54409;DHT22;40315;48.620;9.828;2022-12-07T10:35:59;3.50;99.90
54409;DHT22;40315;48.620;9.828;2022-12-07T10:38:28;3.50;99.90
54409;DHT22;40315;48.620;9.828;2022-12-07T10:41:05;3.50;99.90
54409;DHT22;40315;48.620;9.828;2022-12-07T10:43:34;3.60;99.90
54409;DHT22;40315;48.620;9.828;2022-12-07T10:46:18;3.60;99.90
54409;DHT22;40315;48.620;9.828;2022-12-07T10:48:52;3.50;99.90
54409;DHT22;40315;48.620;9.828;2022-12-07T10:51:26;3.60;99.90
54409;DHT22;40315;48.620;9.828;2022-12-07T10:54:06;4.90;99.90
54409;DHT22;40315;48.620;9.828;2022-12-07T10:56:54;3.50;99.90
54409;DHT22;40315;48.620;9.828;2022-12-07T10:59:47;4.50;99.90
54409;DHT22;40315;48.620;9.828;2022-12-07T11:02:25;3.60;99.90
54409;DHT22;40315;48.620;9.828;2022-12-07T11:05:02;3.70;99.90
54409;DHT22;40315;48.620;9.828;2022-12-07T11:07:42;3.70;99.90
54409;DHT22;40315;48.620;9.828;2022-12-07T11:10:18;3.60;99.90
54409;DHT22;40315;48.620;9.828;2022-12-07T11:13:08;3.60;99.90
54409;DHT22;40315;48.620;9.828;2022-12-07T11:15:52;3.70;99.90
54409;DHT22;40315;48.620;9.828;2022-12-07T11:18:26;3.70;99.90
54409;DHT22;40315;48.620;9.828;2022-12-07T11:21:00;3.70;99.90
54409;DHT22;40315;48.620;9.828;2022-12-07T11:23:45;3.70;99.90
54409;DHT22;40315;48.620;9.828;2022-12-07T11:26:25;3.80;99.90
54409;DHT22;40315;48.620;9.828;2022-12-07T11:29:28;3.70;99.90
54409;DHT22;40315;48.620;9.828;2022-12-07T11:32:07;3.70;99.90
54409;DHT22;40315;48.620;9.828;2022-12-07T11:34:49;3.70;99.90
54409;DHT22;40315;48.620;9.828;2022-12-07T11:37:25;3.70;99.90
54409;DHT22;40315;48.620;9.828;2022-12-07T11:39:59;4.20;99.90
54409;DHT22;40315;48.620;9.828;2022-12-07T11:42:30;3.80;99.90
54409;DHT22;40315;48.620;9.828;2022-12-07T11:45:01;3.80;99.90
54409;DHT22;40315;48.620;9.828;2022-12-07T11:47:35;3.90;99.90
54409;DHT22;40315;48.620;9.828;2022-12-07T11:50:14;3.80;99.90
54409;DHT22;40315;48.620;9.828;2022-12-07T11:52:48;3.80;99.90
54409;DHT22;40315;48.620;9.828;2022-12-07T11:55:21;3.80;99.90
54409;DHT22;40315;48.620;9.828;2022-12-07T11:57:53;3.80;99.90
54409;DHT22;40315;48.620;9.828;2022-12-07T12:00:23;3.80;99.90
54409;DHT22;40315;48.620;9.828;2022-12-07T12:02:58;3.90;99.90
54409;DHT22;40315;48.620;9.828;2022-12-07T12:05:27;3.90;99.90
54409;DHT22;40315;48.620;9.828;2022-12-07T12:08:03;3.80;99.90
54409;DHT22;40315;48.620;9.828;2022-12-07T12:10:40;3.90;99.90
54409;DHT22;40315;48.620;9.828;2022-12-07T12:16:22;3.80;99.90
54409;DHT22;40315;48.620;9.828;2022-12-07T12:19:13;3.80;99.90
54409;DHT22;40315;48.620;9.828;2022-12-07T12:21:45;3.70;99.90
54409;DHT22;40315;48.620;9.828;2022-12-07T12:24:18;3.70;99.90
54409;DHT22;40315;48.620;9.828;2022-12-07T12:26:51;3.80;99.90
54409;DHT22;40315;48.620;9.828;2022-12-07T12:29:22;3.70;99.90
54409;DHT22;40315;48.620;9.828;2022-12-07T12:32:13;3.60;99.90
54409;DHT22;40315;48.620;9.828;2022-12-07T12:34:59;3.70;99.90
54409;DHT22;40315;48.620;9.828;2022-12-07T12:37:54;3.70;99.90
54409;DHT22;40315;48.620;9.828;2022-12-07T12:40:51;3.70;99.90
54409;DHT22;40315;48.620;9.828;2022-12-07T12:46:50;3.70;99.90
54409;DHT22;40315;48.620;9.828;2022-12-07T12:49:39;3.70;99.90
54409;DHT22;40315;48.620;9.828;2022-12-07T12:58:30;3.70;99.90
54409;DHT22;40315;48.620;9.828;2022-12-07T13:04:25;3.60;99.90
54409;DHT22;40315;48.620;9.828;2022-12-07T13:06:53;3.60;99.90
54409;DHT22;40315;48.620;9.828;2022-12-07T13:09:22;3.60;99.90
54409;DHT22;40315;48.620;9.828;2022-12-07T13:11:56;3.60;99.90
54409;DHT22;40315;48.620;9.828;2022-12-07T13:14:53;3.60;99.90
54409;DHT22;40315;48.620;9.828;2022-12-07T13:17:55;3.60;99.90
54409;DHT22;40315;48.620;9.828;2022-12-07T13:20:46;3.70;99.90
54409;DHT22;40315;48.620;9.828;2022-12-07T13:23:16;3.60;99.90
54409;DHT22;40315;48.620;9.828;2022-12-07T13:26:04;3.70;99.90
54409;DHT22;40315;48.620;9.828;2022-12-07T13:28:37;3.70;99.90
54409;DHT22;40315;48.620;9.828;2022-12-07T13:31:35;3.60;99.90
54409;DHT22;40315;48.620;9.828;2022-12-07T13:34:29;3.60;99.90
54409;DHT22;40315;48.620;9.828;2022-12-07T13:37:00;3.60;99.90
54409;DHT22;40315;48.620;9.828;2022-12-07T13:39:28;3.70;99.90
54409;DHT22;40315;48.620;9.828;2022-12-07T13:41:58;3.70;99.90
54409;DHT22;40315;48.620;9.828;2022-12-07T13:44:33;3.80;99.90
54409;DHT22;40315;48.620;9.828;2022-12-07T13:47:06;3.70;99.90
54409;DHT22;40315;48.620;9.828;2022-12-07T13:49:38;3.70;99.90
54409;DHT22;40315;48.620;9.828;2022-12-07T13:52:15;3.60;99.90
54409;DHT22;40315;48.620;9.828;2022-12-07T13:54:48;3.60;99.90
54409;DHT22;40315;48.620;9.828;2022-12-07T13:57:15;4.70;99.90
54409;DHT22;40315;48.620;9.828;2022-12-07T13:59:43;3.60;99.90
54409;DHT22;40315;48.620;9.828;2022-12-07T14:02:26;3.60;99.90
54409;DHT22;40315;48.620;9.828;2022-12-07T14:05:07;3.60;99.90
54409;DHT22;40315;48.620;9.828;2022-12-07T14:07:34;3.60;99.90
54409;DHT22;40315;48.620;9.828;2022-12-07T14:10:06;3.60;99.90
54409;DHT22;40315;48.620;9.828;2022-12-07T14:12:37;3.50;99.90
54409;DHT22;40315;48.620;9.828;2022-12-07T14:15:20;3.50;99.90
54409;DHT22;40315;48.620;9.828;2022-12-07T14:17:53;1.10;99.90
54409;DHT22;40315;48.620;9.828;2022-12-07T14:20:32;3.40;99.90
54409;DHT22;40315;48.620;9.828;2022-12-07T14:22:59;3.40;99.90
54409;DHT22;40315;48.620;9.828;2022-12-07T14:25:44;3.40;99.90
54409;DHT22;40315;48.620;9.828;2022-12-07T14:28:26;3.40;99.90
54409;DHT22;40315;48.620;9.828;2022-12-07T14:30:56;3.30;99.90
54409;DHT22;40315;48.620;9.828;2022-12-07T14:33:25;3.40;99.90
54409;DHT22;40315;48.620;9.828;2022-12-07T14:35:52;3.30;99.90
54409;DHT22;40315;48.620;9.828;2022-12-07T14:38:20;3.30;99.90
54409;DHT22;40315;48.620;9.828;2022-12-07T14:40:48;3.30;99.90
54409;DHT22;40315;48.620;9.828;2022-12-07T14:43:17;3.30;99.90
54409;DHT22;40315;48.620;9.828;2022-12-07T14:45:45;3.30;99.90
54409;DHT22;40315;48.620;9.828;2022-12-07T14:48:15;3.30;99.90
54409;DHT22;40315;48.620;9.828;2022-12-07T14:50:48;3.20;99.90
54409;DHT22;40315;48.620;9.828;2022-12-07T14:53:18;3.20;99.90
54409;DHT22;40315;48.620;9.828;2022-12-07T14:55:48;3.20;99.90
54409;DHT22;40315;48.620;9.828;2022-12-07T14:58:16;3.20;99.90
54409;DHT22;40315;48.620;9.828;2022-12-07T15:00:43;3.20;99.90
54409;DHT22;40315;48.620;9.828;2022-12-07T15:03:15;3.30;99.90
54409;DHT22;40315;48.620;9.828;2022-12-07T15:05:45;3.20;99.90
54409;DHT22;40315;48.620;9.828;2022-12-07T15:08:14;3.20;99.90
54409;DHT22;40315;48.620;9.828;2022-12-07T15:10:41;3.20;99.90
54409;DHT22;40315;48.620;9.828;2022-12-07T15:13:08;3.20;99.90
54409;DHT22;40315;48.620;9.828;2022-12-07T15:15:54;3.20;99.90
54409;DHT22;40315;48.620;9.828;2022-12-07T15:18:24;3.20;99.90
54409;DHT22;40315;48.620;9.828;2022-12-07T15:20:54;3.10;99.90
54409;DHT22;40315;48.620;9.828;2022-12-07T15:23:21;3.10;99.90
54409;DHT22;40315;48.620;9.828;2022-12-07T15:25:48;3.10;99.90
54409;DHT22;40315;48.620;9.828;2022-12-07T15:28:16;3.10;99.90
54409;DHT22;40315;48.620;9.828;2022-12-07T15:30:44;3.10;99.90
54409;DHT22;40315;48.620;9.828;2022-12-07T15:33:12;3.10;99.90
54409;DHT22;40315;48.620;9.828;2022-12-07T15:35:39;3.00;99.90
54409;DHT22;40315;48.620;9.828;2022-12-07T15:40:35;3.00;99.90
54409;DHT22;40315;48.620;9.828;2022-12-07T15:43:03;3.00;99.90
54409;DHT22;40315;48.620;9.828;2022-12-07T15:45:30;3.00;99.90
54409;DHT22;40315;48.620;9.828;2022-12-07T15:47:58;3.00;99.90
54409;DHT22;40315;48.620;9.828;2022-12-07T15:50:26;3.00;99.90
54409;DHT22;40315;48.620;9.828;2022-12-07T15:52:53;3.00;99.90
54409;DHT22;40315;48.620;9.828;2022-12-07T15:55:21;2.90;99.90
54409;DHT22;40315;48.620;9.828;2022-12-07T15:57:50;2.90;99.90
54409;DHT22;40315;48.620;9.828;2022-12-07T16:00:20;2.80;99.90
54409;DHT22;40315;48.620;9.828;2022-12-07T16:02:47;2.80;99.90
54409;DHT22;40315;48.620;9.828;2022-12-07T16:05:14;0.40;99.90
54409;DHT22;40315;48.620;9.828;2022-12-07T16:07:41;2.80;99.90
54409;DHT22;40315;48.620;9.828;2022-12-07T16:10:09;2.80;99.90
54409;DHT22;40315;48.620;9.828;2022-12-07T16:12:39;2.80;99.90
54409;DHT22;40315;48.620;9.828;2022-12-07T16:15:09;2.80;99.90
54409;DHT22;40315;48.620;9.828;2022-12-07T16:17:36;2.80;99.90
54409;DHT22;40315;48.620;9.828;2022-12-07T16:20:05;2.80;99.90
54409;DHT22;40315;48.620;9.828;2022-12-07T16:22:35;2.80;99.90
54409;DHT22;40315;48.620;9.828;2022-12-07T16:25:05;2.80;99.90
54409;DHT22;40315;48.620;9.828;2022-12-07T16:27:33;2.80;99.90
54409;DHT22;40315;48.620;9.828;2022-12-07T16:30:02;2.80;99.90
54409;DHT22;40315;48.620;9.828;2022-12-07T16:32:30;2.80;99.90
54409;DHT22;40315;48.620;9.828;2022-12-07T16:34:57;4.50;99.90
54409;DHT22;40315;48.620;9.828;2022-12-07T16:37:24;3.00;99.90
54409;DHT22;40315;48.620;9.828;2022-12-07T16:39:51;3.10;99.90
54409;DHT22;40315;48.620;9.828;2022-12-07T16:42:19;3.20;99.90
54409;DHT22;40315;48.620;9.828;2022-12-07T16:44:46;3.20;99.90
54409;DHT22;40315;48.620;9.828;2022-12-07T16:47:14;3.30;99.90
54409;DHT22;40315;48.620;9.828;2022-12-07T16:49:42;3.00;99.90
54409;DHT22;40315;48.620;9.828;2022-12-07T16:52:10;3.00;99.90
54409;DHT22;40315;48.620;9.828;2022-12-07T16:54:38;3.20;99.90
54409;DHT22;40315;48.620;9.828;2022-12-07T16:57:05;3.20;99.90
54409;DHT22;40315;48.620;9.828;2022-12-07T16:59:33;3.20;99.90
54409;DHT22;40315;48.620;9.828;2022-12-07T17:02:00;3.00;99.90
54409;DHT22;40315;48.620;9.828;2022-12-07T17:04:29;3.00;99.90
54409;DHT22;40315;48.620;9.828;2022-12-07T17:06:57;3.00;99.90